createdAt,value
2023-05-19T03:03:33.176Z,100.00
2023-05-19T03:04:41.865Z,100.00
2023-05-19T03:05:46.036Z,100.00
2023-05-19T03:06:49.229Z,100.00
2023-05-19T03:07:53.123Z,100.00
2023-05-19T03:08:56.096Z,100.00
2023-05-19T03:10:00.232Z,100.00
2023-05-19T03:11:03.196Z,100.00
2023-05-19T03:12:07.866Z,100.00
2023-05-19T03:13:11.371Z,100.00
2023-05-19T03:14:15.200Z,100.00
2023-05-19T03:15:19.380Z,100.00
2023-05-19T03:16:23.336Z,100.00
2023-05-19T03:17:27.698Z,100.00
2023-05-19T03:18:32.918Z,100.00
2023-05-19T03:19:35.910Z,100.00
2023-05-19T03:20:41.694Z,100.00
2023-05-19T03:21:44.611Z,100.00
2023-05-19T03:22:48.473Z,100.00
2023-05-19T03:23:51.520Z,100.00
2023-05-19T03:24:56.067Z,100.00
2023-05-19T03:25:59.000Z,100.00
2023-05-19T03:27:03.037Z,100.00
2023-05-19T03:28:06.059Z,100.00
2023-05-19T03:29:10.052Z,100.00
2023-05-19T03:30:14.007Z,100.00
2023-05-19T03:31:31.920Z,100.00
2023-05-19T03:32:37.989Z,100.00
2023-05-19T03:33:43.610Z,100.00
2023-05-19T03:34:46.506Z,100.00
2023-05-19T03:35:50.304Z,100.00
2023-05-19T03:36:54.216Z,100.00
2023-05-19T03:37:58.073Z,100.00
2023-05-19T03:39:02.783Z,100.00
2023-05-19T03:40:07.394Z,100.00
2023-05-19T03:41:13.525Z,100.00
2023-05-19T03:42:16.434Z,100.00
2023-05-19T03:43:20.391Z,100.00
2023-05-19T03:44:29.077Z,100.00
2023-05-19T03:45:32.920Z,100.00
2023-05-19T03:46:36.462Z,100.00
2023-05-19T03:47:59.897Z,100.00
2023-05-19T03:49:21.647Z,100.00
2023-05-19T03:50:45.688Z,100.00
2023-05-19T03:51:53.551Z,100.00
2023-05-19T03:53:08.298Z,100.00
2023-05-19T03:54:17.004Z,100.00
2023-05-19T03:55:21.451Z,100.00
2023-05-19T03:56:26.551Z,100.00
2023-05-19T03:57:30.644Z,100.00
2023-05-19T03:58:33.695Z,100.00
2023-05-19T03:59:37.726Z,100.00
2023-05-19T04:00:43.428Z,100.00
2023-05-19T04:01:47.862Z,100.00
2023-05-19T04:02:51.376Z,100.00
2023-05-19T04:03:56.462Z,100.00
2023-05-19T04:05:00.883Z,100.00
2023-05-19T04:06:04.859Z,100.00
2023-05-19T04:07:08.029Z,100.00
2023-05-19T04:08:12.115Z,100.00
2023-05-19T04:09:17.008Z,100.00
2023-05-19T04:10:21.365Z,100.00
2023-05-19T04:11:24.319Z,100.00
2023-05-19T04:12:28.682Z,100.00
2023-05-19T04:13:34.515Z,100.00
2023-05-19T04:14:38.354Z,100.00
2023-05-19T04:15:41.537Z,100.00
2023-05-19T04:16:45.944Z,100.00
2023-05-19T04:17:49.058Z,100.00
2023-05-19T04:18:53.044Z,100.00
2023-05-19T04:19:56.182Z,100.00
2023-05-19T04:21:01.788Z,100.00
2023-05-19T04:22:04.720Z,100.00
2023-05-19T04:23:08.733Z,100.00
2023-05-19T04:24:14.190Z,100.00
2023-05-19T04:25:20.179Z,100.00
2023-05-19T04:26:26.627Z,100.00
2023-05-19T04:27:32.150Z,100.00
2023-05-19T04:28:39.075Z,100.00
2023-05-19T04:29:42.854Z,100.00
2023-05-19T04:30:46.905Z,100.00
2023-05-19T04:31:50.880Z,100.00
2023-05-19T04:32:53.880Z,100.00
2023-05-19T04:33:57.815Z,100.00
2023-05-19T04:35:00.812Z,100.00
2023-05-19T04:36:08.697Z,100.00
2023-05-19T04:37:11.794Z,100.00
2023-05-19T04:38:19.213Z,100.00
2023-05-19T04:39:24.250Z,100.00
2023-05-19T04:40:31.391Z,100.00
2023-05-19T04:41:34.818Z,100.00
2023-05-19T04:42:42.956Z,100.00
2023-05-19T04:43:48.455Z,100.00
2023-05-19T04:44:52.377Z,100.00
2023-05-19T04:45:58.202Z,100.00
2023-05-19T04:47:02.931Z,100.00
2023-05-19T04:48:06.140Z,100.00
2023-05-19T04:49:12.591Z,100.00
2023-05-19T04:50:16.923Z,100.00
2023-05-19T04:51:22.871Z,100.00
2023-05-19T04:52:25.879Z,100.00
2023-05-19T04:53:29.562Z,100.00
2023-05-19T04:54:32.612Z,100.00
2023-05-19T04:55:37.823Z,100.00
2023-05-19T04:56:42.148Z,100.00
2023-05-19T04:57:46.140Z,100.00
2023-05-19T04:58:49.152Z,100.00
2023-05-19T04:59:53.361Z,100.00
2023-05-19T05:00:56.358Z,100.00
2023-05-19T06:55:34.420Z,77.72
2023-05-19T06:56:40.551Z,77.59
2023-05-19T06:57:44.544Z,76.99
2023-05-19T06:58:49.087Z,76.98
2023-05-19T06:59:52.088Z,77.88
2023-05-19T07:00:56.279Z,77.79
2023-05-19T07:02:04.915Z,77.20
2023-05-19T07:03:10.449Z,77.85
2023-05-19T07:04:14.347Z,77.21
2023-05-19T07:05:18.876Z,77.13
2023-05-19T07:06:27.492Z,76.88
2023-05-19T07:07:32.463Z,75.89
2023-05-19T07:08:37.899Z,76.53
2023-05-19T07:09:43.450Z,75.26
2023-05-19T07:10:48.005Z,74.36
2023-05-19T07:11:56.384Z,75.04
2023-05-19T07:12:59.337Z,71.88
2023-05-19T07:14:07.855Z,70.83
2023-05-19T07:15:13.575Z,69.98
2023-05-19T07:16:17.285Z,67.69
2023-05-19T07:17:22.898Z,69.11
2023-05-19T07:18:27.259Z,69.91
2023-05-19T07:19:30.319Z,71.30
2023-05-19T07:20:35.086Z,71.23
2023-05-19T07:21:38.901Z,70.55
2023-05-19T07:22:45.366Z,69.67
2023-05-19T07:23:48.234Z,67.17
2023-05-19T07:24:57.225Z,67.89
2023-05-19T07:26:04.970Z,68.45
2023-05-19T07:27:08.937Z,68.80
2023-05-19T07:28:12.744Z,68.66
2023-05-19T07:29:16.428Z,69.09
2023-05-19T07:30:24.343Z,68.52
2023-05-19T07:31:26.441Z,69.14
2023-05-19T07:32:28.990Z,69.02
2023-05-19T07:33:31.573Z,68.45
2023-05-19T07:34:34.016Z,68.85
2023-05-19T07:35:38.687Z,69.32
2023-05-19T07:36:41.377Z,68.31
2023-05-19T07:37:43.805Z,69.25
2023-05-19T07:38:46.696Z,68.90
2023-05-19T07:39:48.415Z,71.33
2023-05-19T07:40:53.527Z,69.77
2023-05-19T07:41:56.531Z,65.39
2023-05-19T07:42:59.152Z,65.33
2023-05-19T07:44:00.971Z,65.30
2023-05-19T07:45:03.775Z,63.29
2023-05-19T07:46:06.813Z,63.53
2023-05-19T07:47:08.475Z,62.39
2023-05-19T07:48:13.694Z,62.12
2023-05-19T07:49:15.391Z,62.19
2023-05-19T07:50:17.912Z,61.86
2023-05-19T07:51:22.116Z,61.10
2023-05-19T07:52:23.758Z,60.76
2023-05-19T07:53:26.561Z,61.53
2023-05-19T07:54:28.999Z,61.61
2023-05-19T07:55:30.704Z,62.02
2023-05-19T07:56:33.309Z,61.38
2023-05-19T07:57:36.484Z,59.83
2023-05-19T07:58:39.102Z,60.26
2023-05-19T07:59:40.752Z,61.38
2023-05-19T08:00:43.590Z,61.08
2023-05-19T08:01:45.584Z,60.71
2023-05-19T08:02:48.375Z,61.76
2023-05-19T08:03:50.484Z,59.48
2023-05-19T08:04:53.985Z,59.06
2023-05-19T08:05:55.773Z,57.89
2023-05-19T08:06:58.464Z,58.62
2023-05-19T08:08:01.033Z,59.31
2023-05-19T08:09:05.275Z,59.41
2023-05-19T08:10:08.582Z,58.20
2023-05-19T08:11:11.041Z,57.51
2023-05-19T08:12:12.780Z,58.23
2023-05-19T08:13:16.658Z,59.05
2023-05-19T08:14:20.376Z,59.53
2023-05-19T08:15:22.298Z,58.83
2023-05-19T08:16:25.126Z,56.17
2023-05-19T08:17:26.870Z,57.22
2023-05-19T08:18:29.562Z,57.79
2023-05-19T08:19:32.278Z,58.91
2023-05-19T08:20:34.619Z,59.07
2023-05-19T08:21:37.456Z,57.96
2023-05-19T08:22:39.280Z,56.91
2023-05-19T08:23:41.850Z,56.67
2023-05-19T08:24:44.687Z,56.83
2023-05-19T08:25:49.351Z,57.44
2023-05-19T08:26:51.867Z,55.85
2023-05-19T08:27:53.535Z,57.08
2023-05-19T08:28:57.332Z,57.29
2023-05-19T08:29:59.013Z,57.11
2023-05-19T08:31:02.009Z,55.93
2023-05-19T08:32:03.898Z,55.06
2023-05-19T08:33:07.043Z,54.88
2023-05-19T08:34:09.729Z,54.17
2023-05-19T08:35:11.465Z,54.02
2023-05-19T08:36:14.093Z,55.06
2023-05-19T08:37:15.749Z,55.03
2023-05-19T08:38:18.403Z,54.83
2023-05-19T08:39:24.146Z,55.13
2023-05-19T08:40:31.819Z,54.16
2023-05-19T08:41:33.895Z,55.02
2023-05-19T08:42:36.571Z,54.09
2023-05-19T08:43:39.730Z,53.33
2023-05-19T08:44:43.908Z,54.43
2023-05-19T08:45:46.482Z,54.72
2023-05-19T08:46:51.067Z,53.91
2023-05-19T08:47:53.822Z,53.47
2023-05-19T08:49:06.322Z,51.52
2023-05-19T08:50:10.776Z,53.03
2023-05-19T08:51:21.633Z,52.62
2023-05-19T08:52:32.614Z,53.39
2023-05-19T08:53:37.798Z,52.92
2023-05-19T08:54:46.758Z,53.78
2023-05-19T08:55:58.783Z,51.68
2023-05-19T08:57:02.184Z,52.37
2023-05-19T08:58:05.965Z,52.37
2023-05-19T08:59:08.196Z,52.20
2023-05-19T09:00:14.175Z,51.48
2023-05-19T09:01:17.235Z,51.57
2023-05-19T09:02:20.853Z,52.80
2023-05-19T09:03:26.308Z,51.66
2023-05-19T09:04:30.117Z,51.17
2023-05-19T09:05:33.841Z,51.88
2023-05-19T09:06:36.642Z,52.73
2023-05-19T09:07:42.270Z,53.47
2023-05-19T09:08:46.835Z,53.80
2023-05-19T09:09:49.098Z,53.47
2023-05-19T09:10:51.647Z,53.60
2023-05-19T09:11:53.343Z,53.98
2023-05-19T09:12:55.906Z,53.20
2023-05-19T09:13:58.445Z,52.29
2023-05-19T09:15:01.130Z,52.47
2023-05-19T09:16:05.333Z,52.38
2023-05-19T09:17:08.037Z,52.08
2023-05-19T09:18:11.192Z,51.58
2023-05-19T09:19:16.483Z,51.16
2023-05-19T09:20:18.151Z,50.02
2023-05-19T09:21:20.839Z,50.21
2023-05-19T09:22:25.321Z,50.37
2023-05-19T09:23:29.918Z,49.87
2023-05-19T09:24:34.651Z,50.71
2023-05-19T09:25:38.681Z,50.44
2023-05-19T09:26:42.811Z,50.31
2023-05-19T09:27:46.067Z,49.55
2023-05-19T09:28:49.662Z,49.08
2023-05-19T09:29:51.289Z,49.65
2023-05-19T09:31:01.443Z,50.30
2023-05-19T09:32:05.990Z,50.39
2023-05-19T09:33:09.835Z,49.86
2023-05-19T09:34:13.579Z,49.34
2023-05-19T09:35:17.147Z,49.90
2023-05-19T09:36:21.746Z,49.79
2023-05-19T09:37:25.127Z,50.96
2023-05-19T09:38:28.292Z,50.68
2023-05-19T09:39:30.215Z,49.59
2023-05-19T09:40:32.905Z,50.26
2023-05-19T09:41:34.595Z,49.64
2023-05-19T09:42:38.972Z,49.25
2023-05-19T09:43:41.587Z,49.50
2023-05-19T09:44:43.663Z,48.96
2023-05-19T09:45:46.223Z,48.53
2023-05-19T09:46:48.993Z,49.27
2023-05-19T09:47:53.741Z,49.83
2023-05-19T09:48:57.417Z,50.10
2023-05-19T09:49:59.992Z,50.26
2023-05-19T09:51:03.008Z,48.36
2023-05-19T09:52:05.995Z,48.21
2023-05-19T09:53:07.864Z,48.86
2023-05-19T09:54:15.776Z,48.44
2023-05-19T09:55:22.919Z,48.93
2023-05-19T09:56:26.017Z,48.79
2023-05-19T09:57:28.290Z,47.96
2023-05-19T09:58:36.160Z,47.24
2023-05-19T09:59:39.552Z,47.64
2023-05-19T10:00:43.033Z,48.50
2023-05-19T10:01:46.549Z,47.77
2023-05-19T10:02:53.090Z,48.31
2023-05-19T10:03:56.564Z,50.00
2023-05-19T10:04:59.349Z,47.60
2023-05-19T10:06:02.340Z,48.92
2023-05-19T10:07:05.930Z,47.52
2023-05-19T10:08:10.292Z,46.34
2023-05-19T10:09:12.921Z,46.25
2023-05-19T10:10:16.633Z,47.65
2023-05-19T10:11:19.533Z,47.78
2023-05-19T10:12:21.918Z,46.36
2023-05-19T10:13:26.408Z,46.17
2023-05-19T10:14:29.626Z,47.32
2023-05-19T10:15:36.048Z,47.02
2023-05-19T10:16:40.676Z,47.13
2023-05-19T10:17:44.907Z,48.21
2023-05-19T10:18:48.149Z,48.09
2023-05-19T10:19:52.789Z,47.17
2023-05-19T10:20:55.840Z,46.25
2023-05-19T10:21:57.521Z,46.58
2023-05-19T10:23:04.053Z,45.46
2023-05-19T10:24:06.654Z,45.39
2023-05-19T10:25:10.604Z,45.29
2023-05-19T10:26:13.234Z,45.93
2023-05-19T10:27:17.737Z,45.42
2023-05-19T10:28:23.564Z,44.72
2023-05-19T10:29:37.450Z,45.37
2023-05-19T10:30:42.087Z,45.95
2023-05-19T10:31:46.368Z,45.79
2023-05-19T10:32:49.657Z,45.80
2023-05-19T10:34:06.365Z,45.39
2023-05-19T10:35:21.401Z,47.09
2023-05-19T10:36:35.555Z,45.94
2023-05-19T10:37:45.088Z,46.04
2023-05-19T10:38:54.038Z,47.29
2023-05-19T10:39:58.760Z,46.51
2023-05-19T10:41:08.476Z,45.63
2023-05-19T10:42:16.834Z,46.11
2023-05-19T10:43:30.875Z,45.46
2023-05-19T10:44:47.316Z,45.44
2023-05-19T10:45:52.661Z,45.86
2023-05-19T10:46:56.086Z,45.40
2023-05-19T10:47:59.636Z,45.30
2023-05-19T10:49:02.178Z,45.72
2023-05-19T10:50:06.530Z,46.43
2023-05-19T10:51:12.068Z,46.08
2023-05-19T10:52:22.844Z,44.89
2023-05-19T10:53:32.326Z,44.94
2023-05-19T10:54:43.130Z,46.12
2023-05-19T10:55:47.579Z,45.09
2023-05-19T10:56:50.407Z,44.62
2023-05-19T10:57:56.938Z,46.11
2023-05-19T10:58:59.760Z,45.79
2023-05-19T11:00:10.979Z,45.37
2023-05-19T11:01:15.125Z,46.93
2023-05-19T11:02:37.889Z,46.83
2023-05-19T11:03:48.490Z,46.12
2023-05-19T11:04:51.939Z,46.13
2023-05-19T11:05:54.681Z,45.88
2023-05-19T11:06:58.628Z,46.42
2023-05-19T11:08:02.189Z,45.86
2023-05-19T11:09:12.926Z,45.00
2023-05-19T11:10:23.954Z,44.44
2023-05-19T11:11:26.228Z,45.74
2023-05-19T11:12:28.752Z,45.58
2023-05-19T11:13:30.558Z,44.84
2023-05-19T11:14:33.643Z,44.38
2023-05-19T11:15:36.706Z,44.08
2023-05-19T11:16:42.978Z,44.71
2023-05-19T11:17:50.461Z,44.33
2023-05-19T11:18:54.184Z,44.37
2023-05-19T11:19:59.088Z,44.12
2023-05-19T11:21:02.279Z,43.55
2023-05-19T11:22:11.660Z,45.59
2023-05-19T11:23:17.962Z,44.44
2023-05-19T11:24:35.825Z,44.88
2023-05-19T11:25:44.366Z,43.83
2023-05-19T11:26:47.406Z,43.61
2023-05-19T11:27:51.400Z,43.46
2023-05-19T11:28:54.475Z,44.36
2023-05-19T11:29:59.055Z,42.97
2023-05-19T11:31:04.000Z,42.76
2023-05-19T11:32:06.870Z,43.74
2023-05-19T11:33:09.794Z,43.72
2023-05-19T11:34:13.801Z,44.09
2023-05-19T11:35:18.884Z,43.34
2023-05-19T11:36:21.552Z,43.25
2023-05-19T11:37:24.475Z,42.43
2023-05-19T11:38:29.820Z,43.17
2023-05-19T11:39:32.191Z,41.87
2023-05-19T11:40:34.763Z,42.67
2023-05-19T11:41:40.514Z,42.50
2023-05-19T11:42:44.785Z,43.17
2023-05-19T11:43:47.593Z,44.28
2023-05-19T11:44:50.181Z,43.30
2023-05-19T11:45:53.316Z,42.31
2023-05-19T11:46:55.949Z,41.82
2023-05-19T11:48:02.765Z,42.74
2023-05-19T11:49:06.610Z,41.51
2023-05-19T11:50:12.456Z,42.08
2023-05-19T11:51:16.355Z,40.26
2023-05-19T11:52:22.007Z,41.19
2023-05-19T11:53:25.968Z,41.23
2023-05-19T11:54:31.896Z,41.00
2023-05-19T11:55:35.221Z,40.89
2023-05-19T11:56:41.615Z,41.55
2023-05-19T11:58:02.886Z,42.59
2023-05-19T11:59:08.076Z,42.67
2023-05-19T12:00:11.040Z,42.36
2023-05-19T12:01:13.776Z,41.17
2023-05-19T12:02:18.071Z,41.88
2023-05-19T12:03:22.474Z,42.58
2023-05-19T12:04:24.223Z,43.56
2023-05-19T12:05:28.033Z,42.76
2023-05-19T12:06:31.057Z,42.22
2023-05-19T12:07:32.746Z,42.82
2023-05-19T12:08:38.283Z,41.87
2023-05-19T12:09:40.225Z,43.87
2023-05-19T12:10:42.966Z,44.07
2023-05-19T12:11:45.487Z,42.92
2023-05-19T12:12:49.635Z,41.99
2023-05-19T12:13:54.428Z,42.22
2023-05-19T12:14:57.052Z,41.18
2023-05-19T12:16:00.754Z,41.51
2023-05-19T12:17:11.956Z,42.49
2023-05-19T12:18:14.758Z,42.67
2023-05-19T12:19:16.359Z,42.21
2023-05-19T12:20:20.170Z,41.65
2023-05-19T12:21:22.738Z,42.32
2023-05-19T12:22:24.476Z,42.49
2023-05-19T12:23:30.547Z,42.52
2023-05-19T12:24:34.322Z,41.90
2023-05-19T12:25:38.230Z,41.89
2023-05-19T12:26:40.830Z,42.98
2023-05-19T12:27:44.275Z,43.86
2023-05-19T12:28:45.977Z,44.29
2023-05-19T12:29:52.588Z,43.03
2023-05-19T12:30:55.124Z,42.86
2023-05-19T12:31:56.764Z,43.00
2023-05-19T12:32:59.581Z,43.37
2023-05-19T12:34:01.616Z,43.13
2023-05-19T12:35:05.705Z,42.44
2023-05-19T12:36:08.547Z,42.90
2023-05-19T12:37:11.828Z,42.08
2023-05-19T12:38:15.658Z,42.26
2023-05-19T12:39:19.508Z,42.75
2023-05-19T12:40:26.060Z,42.92
2023-05-19T12:41:29.906Z,43.16
2023-05-19T12:42:31.624Z,43.33
2023-05-19T12:43:34.435Z,42.53
2023-05-19T12:44:38.000Z,41.43
2023-05-19T12:45:42.397Z,42.13
2023-05-19T12:46:44.270Z,42.66
2023-05-19T12:47:49.430Z,43.32
2023-05-19T12:48:52.355Z,44.46
2023-05-19T12:49:55.330Z,43.23
2023-05-19T12:50:58.034Z,41.97
2023-05-19T12:52:03.044Z,42.59
2023-05-19T12:53:09.914Z,42.72
2023-05-19T12:54:11.959Z,42.84
2023-05-19T12:55:16.337Z,42.52
2023-05-19T12:56:20.125Z,42.64
2023-05-19T12:57:23.120Z,43.47
2023-05-19T12:58:26.536Z,43.92
2023-05-19T12:59:38.508Z,44.08
2023-05-19T13:00:43.534Z,44.40
2023-05-19T13:01:46.621Z,45.50
2023-05-19T13:02:56.306Z,45.01
2023-05-19T13:03:59.729Z,44.73
2023-05-19T13:05:01.555Z,43.77
2023-05-19T13:06:04.666Z,44.83
2023-05-19T13:07:06.583Z,45.57
2023-05-19T13:08:14.224Z,45.47
2023-05-19T13:09:17.333Z,45.01
2023-05-19T13:10:20.224Z,44.92
2023-05-19T13:11:24.344Z,44.75
2023-05-19T13:12:26.224Z,44.79
2023-05-19T13:13:29.175Z,44.98
2023-05-19T13:14:30.991Z,45.24
2023-05-19T13:15:36.325Z,45.45
2023-05-19T13:16:38.221Z,44.63
2023-05-19T13:17:41.075Z,45.10
2023-05-19T13:18:43.955Z,44.33
2023-05-19T13:19:46.097Z,43.75
2023-05-19T13:20:51.360Z,44.65
2023-05-19T13:21:53.230Z,44.76
2023-05-19T13:22:56.964Z,45.30
2023-05-19T13:23:59.906Z,45.58
2023-05-19T13:25:02.193Z,45.33
2023-05-19T13:26:06.338Z,46.21
2023-05-19T13:27:09.523Z,44.73
2023-05-19T13:28:12.777Z,44.33
2023-05-19T13:29:14.806Z,43.69
2023-05-19T13:30:18.593Z,43.55
2023-05-19T13:31:21.351Z,44.24
2023-05-19T13:32:23.918Z,45.49
2023-05-19T13:33:26.765Z,45.90
2023-05-19T13:34:28.623Z,45.17
2023-05-19T13:35:36.687Z,45.78
2023-05-19T13:36:39.131Z,45.81
2023-05-19T13:37:42.567Z,46.37
2023-05-19T13:38:44.453Z,46.08
2023-05-19T13:39:47.249Z,46.10
2023-05-19T13:40:49.983Z,45.28
2023-05-19T13:41:51.951Z,45.00
2023-05-19T13:42:56.006Z,44.66
2023-05-19T13:43:59.490Z,44.98
2023-05-19T13:45:01.684Z,45.96
2023-05-19T13:46:04.821Z,46.26
2023-05-19T13:47:06.773Z,46.27
2023-05-19T13:48:10.822Z,46.17
2023-05-19T13:49:12.843Z,46.27
2023-05-19T13:50:15.623Z,46.77
2023-05-19T13:51:20.048Z,46.68
2023-05-19T13:52:23.114Z,47.14
2023-05-19T13:53:26.380Z,46.15
2023-05-19T13:54:28.227Z,46.26
2023-05-19T13:55:31.613Z,46.43
2023-05-19T13:56:33.485Z,46.36
2023-05-19T13:57:36.941Z,46.35
2023-05-19T13:58:40.273Z,45.73
2023-05-19T13:59:53.346Z,45.16
2023-05-19T14:01:03.491Z,45.72
2023-05-19T14:02:06.342Z,45.59
2023-05-19T14:03:09.243Z,45.98
2023-05-19T14:04:11.236Z,45.22
2023-05-19T14:05:14.202Z,45.96
2023-05-19T14:06:17.121Z,45.36
2023-05-19T14:07:19.558Z,45.29
2023-05-19T14:08:22.745Z,45.46
2023-05-19T14:09:24.744Z,46.98
2023-05-19T14:10:30.212Z,46.45
2023-05-19T14:11:32.446Z,46.09
2023-05-19T14:12:49.334Z,46.23
2023-05-19T14:14:03.347Z,47.61
2023-05-19T14:15:06.262Z,47.29
2023-05-19T14:16:09.584Z,47.15
2023-05-19T14:17:12.034Z,46.58
2023-05-19T14:18:14.888Z,45.71
2023-05-19T14:19:16.868Z,46.10
2023-05-19T14:20:19.996Z,46.21
2023-05-19T14:21:23.072Z,46.40
2023-05-19T14:22:24.997Z,46.45
2023-05-19T14:23:29.070Z,46.47
2023-05-19T14:24:30.993Z,46.32
2023-05-19T14:25:33.887Z,47.11
2023-05-19T14:26:35.745Z,47.95
2023-05-19T14:27:39.842Z,47.77
2023-05-19T14:28:43.547Z,47.78
2023-05-19T14:29:46.783Z,47.53
2023-05-19T14:30:50.026Z,47.93
2023-05-19T14:31:51.868Z,46.51
2023-05-19T14:32:54.836Z,46.74
2023-05-19T14:33:57.273Z,47.34
2023-05-19T14:34:59.963Z,48.29
2023-05-19T14:36:02.006Z,47.15
2023-05-19T14:37:04.861Z,47.56
2023-05-19T14:38:06.888Z,48.28
2023-05-19T14:39:09.904Z,48.48
2023-05-19T14:40:12.660Z,49.32
2023-05-19T14:41:15.538Z,49.63
2023-05-19T14:42:18.430Z,49.24
2023-05-19T14:43:20.319Z,49.13
2023-05-19T14:44:23.095Z,48.61
2023-05-19T14:45:26.412Z,49.73
2023-05-19T14:46:29.316Z,49.11
2023-05-19T14:47:31.159Z,49.61
2023-05-19T14:48:34.001Z,49.81
2023-05-19T14:49:35.836Z,49.75
2023-05-19T14:50:39.163Z,48.84
2023-05-19T14:51:41.030Z,49.55
2023-05-19T14:52:43.826Z,49.54
2023-05-19T14:53:45.648Z,49.50
2023-05-19T14:54:48.592Z,49.86
2023-05-19T14:55:51.414Z,48.98
2023-05-19T14:56:53.264Z,49.59
2023-05-19T14:57:57.106Z,49.16
2023-05-19T14:58:59.216Z,48.89
2023-05-19T15:00:02.398Z,48.54
2023-05-19T15:01:05.678Z,49.21
2023-05-19T15:02:08.619Z,48.49
2023-05-19T15:03:13.782Z,49.49
2023-05-19T15:04:16.813Z,49.38
2023-05-19T15:05:18.879Z,48.96
2023-05-19T15:06:22.190Z,48.26
2023-05-19T15:07:24.556Z,48.45
2023-05-19T15:08:27.600Z,49.22
2023-05-19T15:09:30.502Z,48.55
2023-05-19T15:10:32.501Z,47.84
2023-05-19T15:11:35.527Z,47.96
2023-05-19T15:12:37.560Z,49.13
2023-05-19T15:13:40.612Z,48.45
2023-05-19T15:14:42.443Z,48.95
2023-05-19T15:15:45.448Z,49.72
2023-05-19T15:16:48.938Z,49.25
2023-05-19T15:17:51.918Z,49.00
2023-05-19T15:18:53.850Z,49.78
2023-05-19T15:19:56.587Z,50.25
2023-05-19T15:20:58.450Z,49.91
2023-05-19T15:22:01.270Z,50.67
2023-05-19T15:23:03.083Z,49.83
2023-05-19T15:24:06.072Z,50.17
2023-05-19T15:25:09.429Z,50.90
2023-05-19T15:26:12.264Z,50.69
2023-05-19T15:27:14.261Z,51.56
2023-05-19T15:28:17.288Z,51.60
2023-05-19T15:29:19.700Z,51.79
2023-05-19T15:30:22.594Z,51.25
2023-05-19T15:31:24.497Z,51.75
2023-05-19T15:32:28.698Z,51.39
2023-05-19T15:33:30.875Z,51.11
2023-05-19T15:34:33.911Z,50.58
2023-05-19T15:35:35.699Z,51.21
2023-05-19T15:36:40.441Z,51.20
2023-05-19T15:37:42.207Z,51.68
2023-05-19T15:38:45.017Z,50.74
2023-05-19T15:39:46.880Z,51.85
2023-05-19T15:40:49.702Z,52.39
2023-05-19T15:41:51.570Z,51.79
2023-05-19T15:42:54.478Z,51.87
2023-05-19T15:43:56.334Z,51.27
2023-05-19T15:44:59.093Z,51.64
2023-05-19T15:46:00.977Z,51.66
2023-05-19T15:47:03.737Z,52.40
2023-05-19T15:48:07.320Z,52.00
2023-05-19T15:49:12.730Z,51.56
2023-05-19T15:50:16.792Z,51.17
2023-05-19T15:51:19.751Z,51.30
2023-05-19T15:52:21.656Z,51.84
2023-05-19T15:53:24.510Z,52.05
2023-05-19T15:54:26.542Z,53.10
2023-05-19T15:55:29.352Z,51.90
2023-05-19T15:56:31.206Z,52.73
2023-05-19T15:57:34.133Z,52.96
2023-05-19T15:58:36.996Z,53.13
2023-05-19T15:59:39.127Z,53.17
2023-05-19T16:00:42.157Z,52.22
2023-05-19T16:01:48.785Z,52.12
2023-05-19T16:02:51.818Z,52.83
2023-05-19T16:03:56.164Z,53.78
2023-05-19T16:04:58.049Z,53.48
2023-05-19T16:06:01.610Z,53.39
2023-05-19T16:07:03.565Z,53.35
2023-05-19T16:08:08.477Z,53.16
2023-05-19T16:09:11.585Z,52.47
2023-05-19T16:10:13.526Z,53.01
2023-05-19T16:11:16.318Z,52.88
2023-05-19T16:12:18.179Z,53.00
2023-05-19T16:13:21.058Z,52.38
2023-05-19T16:14:24.367Z,53.06
2023-05-19T16:15:27.221Z,53.48
2023-05-19T16:16:29.139Z,53.58
2023-05-19T16:17:31.912Z,53.66
2023-05-19T16:18:34.884Z,53.81
2023-05-19T16:19:41.437Z,53.13
2023-05-19T16:20:44.172Z,54.02
2023-05-19T16:21:48.792Z,54.58
2023-05-19T16:22:51.510Z,54.10
2023-05-19T16:23:53.562Z,52.27
2023-05-19T16:24:56.309Z,53.24
2023-05-19T16:25:58.143Z,53.85
2023-05-19T16:27:00.969Z,53.24
2023-05-19T16:28:02.871Z,53.61
2023-05-19T16:29:05.724Z,53.92
2023-05-19T16:30:08.507Z,52.97
2023-05-19T16:31:11.368Z,53.23
2023-05-19T16:32:13.298Z,53.21
2023-05-19T16:33:16.350Z,54.18
2023-05-19T16:34:19.141Z,54.38
2023-05-19T16:35:23.417Z,54.20
2023-05-19T16:36:25.248Z,54.05
2023-05-19T16:37:27.974Z,53.49
2023-05-19T16:38:29.805Z,54.65
2023-05-19T16:39:32.759Z,54.62
2023-05-19T16:40:35.744Z,54.88
2023-05-19T16:41:37.776Z,54.05
2023-05-19T16:42:40.957Z,54.94
2023-05-19T16:43:42.801Z,54.80
2023-05-19T16:44:45.620Z,54.82
2023-05-19T16:45:47.706Z,54.95
2023-05-19T16:46:50.521Z,54.71
2023-05-19T16:47:52.468Z,54.37
2023-05-19T16:48:55.295Z,54.86
2023-05-19T16:49:57.222Z,54.20
2023-05-19T16:51:01.324Z,55.56
2023-05-19T16:52:06.396Z,55.64
2023-05-19T16:53:09.336Z,55.92
2023-05-19T16:54:11.138Z,55.43
2023-05-19T16:55:17.288Z,55.21
2023-05-19T16:56:19.197Z,55.29
2023-05-19T16:57:22.064Z,55.37
2023-05-19T16:58:23.886Z,55.70
2023-05-19T16:59:26.699Z,55.16
2023-05-19T17:00:29.809Z,55.37
2023-05-19T17:01:32.923Z,55.14
2023-05-19T17:02:34.849Z,55.24
2023-05-19T17:03:37.705Z,55.70
2023-05-19T17:04:39.703Z,56.07
2023-05-19T17:05:43.400Z,55.14
2023-05-19T17:06:46.543Z,54.66
2023-05-19T17:07:49.346Z,54.86
2023-05-19T17:08:52.129Z,55.52
2023-05-19T17:09:55.996Z,56.66
2023-05-19T17:10:58.866Z,57.10
2023-05-19T17:12:00.810Z,56.59
2023-05-19T17:13:03.542Z,56.35
2023-05-19T17:14:08.084Z,56.97
2023-05-19T17:15:11.510Z,56.45
2023-05-19T17:16:13.525Z,56.36
2023-05-19T17:17:16.385Z,56.17
2023-05-19T17:18:18.450Z,56.90
2023-05-19T17:19:21.481Z,56.70
2023-05-19T17:20:23.335Z,58.10
2023-05-19T17:21:26.168Z,58.44
2023-05-19T17:22:30.368Z,60.16
2023-05-19T17:23:33.549Z,60.14
2023-05-19T17:24:36.505Z,61.66
2023-05-19T17:25:38.326Z,61.88
2023-05-19T17:26:41.262Z,63.52
2023-05-19T17:27:43.071Z,63.92
2023-05-19T17:28:46.032Z,63.46
2023-05-19T17:29:48.171Z,62.89
2023-05-19T17:30:50.957Z,62.71
2023-05-19T17:31:52.795Z,63.79
2023-05-19T17:32:57.423Z,64.19
2023-05-19T17:34:00.259Z,64.04
2023-05-19T17:35:03.192Z,64.73
2023-05-19T17:36:08.566Z,64.68
2023-05-19T17:37:11.457Z,64.98
2023-05-19T17:38:14.737Z,65.39
2023-05-19T17:39:20.016Z,65.88
2023-05-19T17:40:22.880Z,66.68
2023-05-19T17:41:26.310Z,67.02
2023-05-19T17:42:29.275Z,67.17
2023-05-19T17:43:32.210Z,67.45
2023-05-19T17:44:34.324Z,67.44
2023-05-19T17:45:37.553Z,67.48
2023-05-19T17:46:39.753Z,67.82
2023-05-19T17:47:43.168Z,67.24
2023-05-19T17:48:46.384Z,67.57
2023-05-19T17:49:48.252Z,68.07
2023-05-19T17:50:51.210Z,67.59
2023-05-19T17:51:54.353Z,67.26
2023-05-19T17:52:57.643Z,67.29
2023-05-19T17:54:01.633Z,68.07
2023-05-19T17:55:05.423Z,67.46
2023-05-19T17:56:10.256Z,67.12
2023-05-19T17:57:15.889Z,67.26
2023-05-19T17:58:18.431Z,67.02
2023-05-19T17:59:22.429Z,67.30
2023-05-19T18:00:25.997Z,67.34
2023-05-19T18:01:30.966Z,68.08
2023-05-19T18:02:35.903Z,67.66
2023-05-19T18:03:39.743Z,68.21
2023-05-19T18:04:44.937Z,68.99
2023-05-19T18:05:49.203Z,69.05
2023-05-19T18:06:53.989Z,68.56
2023-05-19T18:07:57.811Z,69.19
2023-05-19T18:09:08.078Z,68.71
2023-05-19T18:10:13.237Z,68.74
2023-05-19T18:11:18.218Z,67.74
2023-05-19T18:12:21.597Z,66.67
2023-05-19T18:13:26.477Z,66.48
2023-05-19T18:14:29.820Z,65.69
2023-05-19T18:15:34.683Z,66.00
2023-05-19T18:16:39.483Z,67.32
2023-05-19T18:17:42.844Z,68.02
2023-05-19T18:18:50.809Z,67.82
2023-05-19T18:19:54.843Z,68.96
2023-05-19T18:20:59.211Z,68.74
2023-05-19T18:22:02.533Z,69.50
2023-05-19T18:23:07.493Z,69.32
2023-05-19T18:24:13.173Z,69.42
2023-05-19T18:25:20.401Z,69.30
2023-05-19T18:26:25.929Z,70.12
2023-05-19T18:27:32.309Z,71.01
2023-05-19T18:28:37.512Z,71.27
2023-05-19T18:29:41.765Z,72.06
2023-05-19T18:30:47.242Z,71.75
2023-05-19T18:31:51.433Z,72.82
2023-05-19T18:32:57.404Z,73.37
2023-05-19T18:34:04.888Z,73.68
2023-05-19T18:35:11.326Z,73.84
2023-05-19T18:36:17.353Z,73.43
2023-05-19T18:37:21.922Z,74.60
2023-05-19T18:38:27.858Z,74.73